Time;durP1;ratioP1;P1;durP2;ratioP2;P2;SDS_P1;SDS_P2;PMS_P1;PMS_P2;Temp;Humidity;BMP_temperature;BMP_pressure;BME280_temperature;BME280_humidity;BME280_pressure;Samples;Min_cycle;Max_cycle;Signal;HPM_P1;HPM_P2
2022/01/31 00:00:11;;;;;;;30.13;5.25;;;2.60;86.50;;;;;;4991632;28;20517;-71
2022/01/31 00:02:36;;;;;;;25.80;5.13;;;2.60;86.50;;;;;;4989942;28;20474;-71
2022/01/31 00:05:03;;;;;;;30.30;5.35;;;2.60;86.30;;;;;;4990693;28;20096;-71
2022/01/31 00:07:29;;;;;;;27.08;4.95;;;2.60;86.00;;;;;;4988512;28;20062;-71
2022/01/31 00:09:54;;;;;;;21.73;4.13;;;2.60;86.10;;;;;;4991459;28;20053;-71
2022/01/31 00:12:22;;;;;;;34.10;4.78;;;2.60;86.00;;;;;;4991731;28;20026;-71
2022/01/31 00:14:50;;;;;;;37.80;4.85;;;2.60;86.10;;;;;;4991321;28;20070;-71
2022/01/31 00:17:16;;;;;;;26.08;4.95;;;2.60;86.20;;;;;;4990083;28;20149;-71
2022/01/31 00:19:43;;;;;;;27.15;4.63;;;2.60;86.10;;;;;;4988457;28;20027;-71
2022/01/31 00:22:11;;;;;;;41.70;5.25;;;2.60;85.90;;;;;;4989163;28;20033;-71
2022/01/31 00:24:37;;;;;;;27.83;5.10;;;2.60;85.80;;;;;;5006560;28;20055;-71
2022/01/31 00:27:05;;;;;;;26.98;5.18;;;2.60;86.00;;;;;;4991645;28;20117;-71
2022/01/31 00:29:31;;;;;;;22.35;4.43;;;2.50;85.80;;;;;;4991132;28;20030;-71
2022/01/31 00:31:57;;;;;;;29.08;5.45;;;2.50;85.80;;;;;;4989157;28;20033;-71
2022/01/31 00:34:22;;;;;;;29.15;4.35;;;2.50;85.70;;;;;;4986713;28;20089;-71
2022/01/31 00:36:48;;;;;;;36.35;4.78;;;2.40;86.00;;;;;;5002218;28;20022;-71
2022/01/31 00:39:14;;;;;;;33.13;5.47;;;2.40;86.20;;;;;;4991888;28;20029;-71
2022/01/31 00:41:40;;;;;;;26.98;4.15;;;2.40;86.00;;;;;;4991063;28;20036;-71
2022/01/31 00:44:23;;;;;;;33.05;5.45;;;2.40;86.10;;;;;;4977569;28;20030;-71
2022/01/31 00:47:24;;;;;;;28.50;4.55;;;2.40;86.00;;;;;;4988339;28;20029;-71
2022/01/31 00:49:48;;;;;;;34.30;5.47;;;2.40;85.90;;;;;;4988249;28;20034;-71
2022/01/31 00:52:14;;;;;;;33.38;4.85;;;2.40;86.10;;;;;;4985036;28;20033;-71
2022/01/31 00:54:39;;;;;;;26.25;4.47;;;2.30;86.00;;;;;;4977247;28;20026;-71
2022/01/31 00:57:05;;;;;;;33.63;6.00;;;2.30;86.30;;;;;;4990375;28;20036;-71
2022/01/31 00:59:30;;;;;;;24.17;4.25;;;2.30;86.50;;;;;;4990823;28;20050;-71
2022/01/31 01:01:56;;;;;;;26.42;4.80;;;2.30;86.60;;;;;;4988921;28;20073;-71
2022/01/31 01:04:21;;;;;;;30.58;4.72;;;2.30;86.70;;;;;;4978511;28;20443;-71
2022/01/31 01:06:47;;;;;;;31.23;6.10;;;2.40;86.50;;;;;;4987829;28;20478;-71
2022/01/31 01:09:12;;;;;;;34.00;6.00;;;2.30;86.40;;;;;;4990820;28;20038;-71
2022/01/31 01:11:38;;;;;;;29.52;5.15;;;2.30;86.70;;;;;;4990907;28;20102;-71
2022/01/31 01:14:04;;;;;;;30.08;4.70;;;2.30;86.80;;;;;;4988941;28;20397;-71
2022/01/31 01:16:29;;;;;;;30.48;5.18;;;2.30;87.00;;;;;;4985941;28;20027;-71
2022/01/31 01:18:55;;;;;;;28.42;4.63;;;2.30;87.00;;;;;;4989632;28;20049;-71
2022/01/31 01:21:20;;;;;;;31.83;5.80;;;2.30;87.00;;;;;;4988385;28;20151;-71
2022/01/31 01:23:46;;;;;;;35.85;6.07;;;2.20;87.10;;;;;;4990682;28;20350;-71
2022/01/31 01:26:11;;;;;;;24.02;5.00;;;2.30;87.00;;;;;;4985924;28;20057;-71
2022/01/31 01:28:37;;;;;;;29.42;4.88;;;2.30;87.00;;;;;;4982554;28;20359;-71
2022/01/31 01:31:03;;;;;;;28.02;4.78;;;2.20;87.00;;;;;;4993122;28;20541;-71
2022/01/31 01:33:28;;;;;;;34.92;4.80;;;2.30;86.90;;;;;;4994450;28;20030;-71
2022/01/31 01:35:55;;;;;;;28.25;4.63;;;2.20;87.00;;;;;;5005032;28;20026;-71
2022/01/31 01:38:27;;;;;;;33.85;5.10;;;2.20;87.00;;;;;;4989072;28;20401;-71
2022/01/31 01:40:54;;;;;;;35.22;5.85;;;2.30;86.90;;;;;;4990777;28;20034;-71
2022/01/31 01:43:20;;;;;;;29.15;4.57;;;2.20;87.00;;;;;;4994407;28;20137;-71
2022/01/31 01:45:49;;;;;;;30.90;5.53;;;2.30;87.10;;;;;;4993158;28;20206;-71
2022/01/31 01:48:15;;;;;;;27.50;5.63;;;2.30;86.90;;;;;;4994167;28;20033;-71
2022/01/31 01:50:40;;;;;;;33.08;5.40;;;2.30;87.10;;;;;;4982172;28;20386;-71
2022/01/31 01:53:07;;;;;;;32.50;4.85;;;2.30;87.10;;;;;;4983835;28;20026;-71
2022/01/31 01:55:32;;;;;;;32.30;4.95;;;2.30;87.20;;;;;;4989669;28;20027;-71
2022/01/31 01:57:58;;;;;;;28.65;5.65;;;2.30;87.10;;;;;;4984680;28;20033;-71
2022/01/31 02:00:27;;;;;;;31.33;5.60;;;2.20;87.20;;;;;;4993399;28;20105;-71
2022/01/31 02:02:54;;;;;;;33.53;5.18;;;2.30;87.20;;;;;;4983303;28;20037;-71
2022/01/31 02:05:21;;;;;;;29.08;4.63;;;2.30;87.10;;;;;;4991510;28;20030;-71
2022/01/31 02:07:47;;;;;;;34.97;5.60;;;2.30;87.10;;;;;;4992453;28;20034;-71
2022/01/31 02:10:13;;;;;;;27.35;4.95;;;2.30;87.10;;;;;;4994229;28;20022;-71
2022/01/31 02:12:41;;;;;;;37.30;5.85;;;2.30;87.00;;;;;;4993490;28;20019;-71
2022/01/31 02:15:08;;;;;;;24.30;5.05;;;2.30;87.00;;;;;;4992944;28;20065;-71
2022/01/31 02:17:34;;;;;;;29.55;5.72;;;2.30;86.80;;;;;;4992786;28;20367;-71
2022/01/31 02:20:00;;;;;;;29.02;5.25;;;2.30;86.80;;;;;;4992593;28;20034;-71
2022/01/31 02:22:25;;;;;;;27.90;5.60;;;2.30;86.70;;;;;;4990975;28;20037;-71
2022/01/31 02:24:51;;;;;;;26.30;5.65;;;2.40;86.30;;;;;;4993516;28;20030;-71
2022/01/31 02:27:27;;;;;;;28.65;4.63;;;2.40;86.30;;;;;;4982862;28;20034;-71
2022/01/31 02:29:53;;;;;;;24.48;5.10;;;2.40;86.60;;;;;;4993622;28;20113;-71
2022/01/31 02:32:20;;;;;;;26.90;5.20;;;2.40;87.20;;;;;;4992677;28;20518;-71
2022/01/31 02:34:46;;;;;;;29.40;4.85;;;2.20;88.20;;;;;;5000541;28;20076;-71
2022/01/31 02:37:12;;;;;;;24.88;4.43;;;2.10;89.10;;;;;;4987288;28;20466;-71
2022/01/31 02:39:37;;;;;;;21.45;4.28;;;2.10;89.70;;;;;;4989949;28;20041;-71
2022/01/31 02:42:03;;;;;;;17.98;4.72;;;2.00;90.30;;;;;;4992009;28;20064;-71
2022/01/31 02:44:29;;;;;;;27.58;4.68;;;2.00;90.70;;;;;;4992129;28;20030;-71
2022/01/31 02:46:55;;;;;;;24.23;4.53;;;1.90;91.10;;;;;;4989997;28;20061;-71
2022/01/31 02:49:24;;;;;;;18.38;5.38;;;1.90;91.20;;;;;;4991637;28;20430;-71
2022/01/31 02:52:02;;;;;;;29.50;5.07;;;1.80;91.50;;;;;;4985306;28;20034;-71
2022/01/31 02:54:30;;;;;;;19.52;4.47;;;1.80;91.60;;;;;;4980534;28;20033;-71
2022/01/31 02:56:55;;;;;;;25.02;5.00;;;1.80;91.80;;;;;;4993100;28;20023;-71
2022/01/31 02:59:21;;;;;;;23.13;5.25;;;1.80;92.10;;;;;;4991358;28;20028;-71
2022/01/31 03:01:47;;;;;;;25.77;5.10;;;1.80;92.10;;;;;;4991936;28;20026;-71
2022/01/31 03:04:12;;;;;;;20.55;5.18;;;1.80;92.30;;;;;;4992040;28;20073;-71
2022/01/31 03:06:40;;;;;;;16.42;4.65;;;1.70;92.30;;;;;;4990117;28;20030;-71
2022/01/31 03:09:05;;;;;;;31.10;6.22;;;1.80;92.40;;;;;;4992893;28;20022;-71
2022/01/31 03:11:31;;;;;;;30.35;5.65;;;1.80;92.50;;;;;;4991724;28;20036;-71
2022/01/31 03:13:57;;;;;;;22.92;5.03;;;1.80;92.50;;;;;;4992443;28;20030;-71
2022/01/31 03:16:23;;;;;;;27.80;5.57;;;1.80;92.50;;;;;;4991620;28;20085;-71
2022/01/31 03:18:48;;;;;;;22.63;5.38;;;1.80;92.40;;;;;;4991135;28;20031;-71
2022/01/31 03:21:14;;;;;;;28.58;5.30;;;1.80;92.30;;;;;;4989211;28;20023;-71
2022/01/31 03:23:41;;;;;;;30.30;5.35;;;1.80;92.30;;;;;;4985566;28;20026;-71
2022/01/31 03:26:06;;;;;;;24.60;4.40;;;1.80;91.90;;;;;;4986424;28;20034;-71
2022/01/31 03:28:32;;;;;;;31.33;5.35;;;1.90;91.40;;;;;;4992576;28;20026;-71
2022/01/31 03:30:57;;;;;;;26.42;5.15;;;1.90;91.30;;;;;;4992032;28;20030;-71
2022/01/31 03:33:23;;;;;;;27.45;5.03;;;1.90;91.20;;;;;;4995683;28;20034;-71
2022/01/31 03:35:48;;;;;;;29.25;5.13;;;1.90;91.10;;;;;;4998148;28;20026;-71
2022/01/31 03:38:14;;;;;;;23.58;5.35;;;1.90;91.10;;;;;;4989365;28;20046;-71
2022/01/31 03:40:39;;;;;;;25.90;5.40;;;1.90;91.10;;;;;;4991827;28;20389;-71
2022/01/31 03:43:05;;;;;;;25.85;5.20;;;1.90;91.00;;;;;;4989403;28;20039;-71
2022/01/31 03:45:34;;;;;;;29.83;5.55;;;1.90;90.80;;;;;;4991942;28;20041;-71
2022/01/31 03:48:00;;;;;;;22.75;4.95;;;1.90;90.60;;;;;;4989673;28;20108;-71
2022/01/31 03:50:27;;;;;;;25.73;4.47;;;1.90;90.60;;;;;;4989785;28;20030;-71
2022/01/31 03:52:53;;;;;;;33.15;5.53;;;1.90;90.70;;;;;;4986354;28;20109;-71
2022/01/31 03:55:19;;;;;;;26.77;5.13;;;1.90;90.60;;;;;;4983635;28;20037;-71
2022/01/31 03:57:45;;;;;;;26.90;5.30;;;1.90;90.60;;;;;;4986836;28;20038;-71
2022/01/31 04:00:14;;;;;;;33.15;5.68;;;1.90;90.30;;;;;;4980805;28;20348;-71
2022/01/31 04:02:41;;;;;;;25.80;5.22;;;1.90;90.10;;;;;;4989369;28;20034;-71
2022/01/31 04:05:07;;;;;;;25.13;5.32;;;1.90;89.90;;;;;;4991204;28;20030;-71
2022/01/31 04:07:33;;;;;;;27.10;5.10;;;2.00;89.90;;;;;;4989722;28;20034;-71
2022/01/31 04:09:59;;;;;;;30.02;5.60;;;2.00;89.90;;;;;;4991791;28;20029;-71
2022/01/31 04:12:25;;;;;;;35.47;5.60;;;1.90;89.90;;;;;;4989864;28;20034;-71
2022/01/31 04:14:50;;;;;;;27.35;5.13;;;1.90;89.90;;;;;;4990835;28;20050;-73
2022/01/31 04:17:19;;;;;;;29.75;5.90;;;1.90;89.90;;;;;;4985797;28;20073;-71
2022/01/31 04:19:46;;;;;;;28.85;5.57;;;1.90;89.90;;;;;;4989384;28;20033;-71
2022/01/31 04:22:15;;;;;;;28.40;5.80;;;1.90;89.70;;;;;;4989216;28;20031;-71
2022/01/31 04:24:41;;;;;;;28.50;5.88;;;1.90;89.70;;;;;;4991081;28;20030;-71
2022/01/31 04:27:16;;;;;;;29.15;5.40;;;1.90;89.60;;;;;;4980915;28;20038;-71
2022/01/31 04:29:43;;;;;;;33.03;5.75;;;1.90;89.60;;;;;;4991337;28;20105;-71
2022/01/31 04:32:09;;;;;;;37.78;6.13;;;1.90;89.60;;;;;;4991536;28;20365;-71
2022/01/31 04:34:34;;;;;;;30.02;5.10;;;1.80;89.60;;;;;;5002858;28;20026;-71
2022/01/31 04:37:00;;;;;;;28.17;5.05;;;1.90;89.60;;;;;;4988173;28;20039;-71
2022/01/31 04:39:28;;;;;;;28.77;5.93;;;1.80;89.70;;;;;;4991826;28;20030;-71
2022/01/31 04:41:53;;;;;;;29.13;5.60;;;1.90;89.60;;;;;;4986467;28;20076;-71
2022/01/31 04:44:19;;;;;;;23.90;5.20;;;1.90;89.50;;;;;;4990687;28;20038;-71
2022/01/31 04:46:49;;;;;;;28.08;5.70;;;1.90;89.50;;;;;;4989089;28;20031;-71
2022/01/31 04:49:16;;;;;;;27.15;5.88;;;1.90;89.50;;;;;;4982047;28;20363;-71
2022/01/31 04:51:42;;;;;;;31.77;5.68;;;1.90;89.40;;;;;;4988334;28;20049;-71
2022/01/31 04:54:08;;;;;;;27.05;5.22;;;2.00;89.30;;;;;;4986472;28;20057;-71
2022/01/31 04:56:35;;;;;;;36.65;5.50;;;2.10;89.30;;;;;;4983158;28;20022;-71
2022/01/31 04:59:00;;;;;;;27.83;5.22;;;2.10;89.20;;;;;;4990847;28;20022;-71
2022/01/31 05:01:27;;;;;;;28.63;5.38;;;2.10;89.30;;;;;;4977196;28;20085;-71
2022/01/31 05:03:52;;;;;;;30.65;4.97;;;2.10;89.40;;;;;;4990102;28;20049;-71
2022/01/31 05:06:25;;;;;;;25.17;5.05;;;2.10;89.60;;;;;;4991323;28;20362;-71
2022/01/31 05:08:51;;;;;;;28.30;6.05;;;2.10;89.90;;;;;;4994616;28;20073;-71
2022/01/31 05:11:17;;;;;;;22.88;5.80;;;2.00;90.10;;;;;;4994883;28;20636;-71
2022/01/31 05:13:43;;;;;;;27.48;6.25;;;2.00;90.50;;;;;;4994135;28;20116;-71
2022/01/31 05:16:08;;;;;;;22.33;5.60;;;1.90;90.80;;;;;;4993936;28;20077;-71
2022/01/31 05:18:34;;;;;;;33.03;6.00;;;1.90;91.20;;;;;;4994188;28;20037;-70
2022/01/31 05:20:59;;;;;;;25.95;6.05;;;1.80;91.60;;;;;;4992051;28;20614;-69
2022/01/31 05:23:25;;;;;;;25.33;5.97;;;1.70;91.90;;;;;;4993650;28;20034;-69
2022/01/31 05:25:51;;;;;;;26.60;6.10;;;1.60;92.30;;;;;;4981262;28;20030;-69
2022/01/31 05:28:16;;;;;;;22.42;6.03;;;1.60;92.60;;;;;;4994633;28;20058;-70
2022/01/31 05:30:42;;;;;;;31.48;7.32;;;1.50;92.90;;;;;;4989224;28;20046;-70
2022/01/31 05:33:07;;;;;;;23.80;5.75;;;1.40;93.10;;;;;;5007630;28;20034;-70
2022/01/31 05:35:33;;;;;;;30.23;6.78;;;1.30;93.40;;;;;;4991882;28;20455;-70
2022/01/31 05:37:59;;;;;;;31.42;6.55;;;1.30;93.50;;;;;;4990221;28;20054;-70
2022/01/31 05:40:24;;;;;;;30.30;6.80;;;1.20;93.70;;;;;;4982890;28;20688;-70
2022/01/31 05:42:50;;;;;;;26.73;6.53;;;1.20;94.00;;;;;;4983886;28;20696;-70
2022/01/31 05:45:15;;;;;;;26.02;5.93;;;1.10;94.10;;;;;;4994175;28;20351;-70
2022/01/31 05:47:41;;;;;;;33.88;6.93;;;1.10;94.30;;;;;;4993840;28;20025;-70
2022/01/31 05:50:07;;;;;;;27.20;6.90;;;1.00;94.40;;;;;;4992748;28;20454;-70
2022/01/31 05:52:33;;;;;;;31.33;6.95;;;1.00;94.50;;;;;;4991784;28;20085;-70
2022/01/31 05:54:59;;;;;;;37.88;7.05;;;0.90;94.60;;;;;;4993490;28;20022;-70
2022/01/31 05:57:24;;;;;;;29.83;6.97;;;0.80;94.80;;;;;;4984867;28;20035;-69
2022/01/31 05:59:51;;;;;;;29.45;6.32;;;0.80;94.90;;;;;;4993179;28;20038;-70
2022/01/31 06:02:17;;;;;;;35.10;6.53;;;0.80;95.10;;;;;;4987452;28;20022;-69
2022/01/31 06:04:42;;;;;;;31.00;6.20;;;0.80;95.20;;;;;;4993324;28;20038;-69
2022/01/31 06:07:08;;;;;;;27.20;6.40;;;0.70;95.20;;;;;;4987444;28;20076;-70
2022/01/31 06:09:33;;;;;;;33.17;6.75;;;0.70;95.30;;;;;;4993821;28;20474;-69
2022/01/31 06:12:02;;;;;;;33.60;7.63;;;0.70;95.40;;;;;;4992191;28;20042;-69
2022/01/31 06:14:28;;;;;;;28.80;6.35;;;0.70;95.50;;;;;;4993174;28;20393;-69
2022/01/31 06:16:53;;;;;;;30.13;6.72;;;0.70;95.50;;;;;;4987242;28;20034;-70
2022/01/31 06:19:19;;;;;;;33.75;8.02;;;0.70;95.60;;;;;;4977898;28;20038;-69
2022/01/31 06:21:44;;;;;;;30.90;8.18;;;0.70;95.60;;;;;;4991260;28;20350;-70
2022/01/31 06:24:10;;;;;;;37.75;7.50;;;0.70;95.70;;;;;;4993334;28;20031;-69
2022/01/31 06:26:39;;;;;;;33.90;8.40;;;0.70;95.80;;;;;;4993460;28;20476;-69
2022/01/31 06:29:05;;;;;;;27.17;8.23;;;0.70;95.80;;;;;;4993487;28;20023;-69
2022/01/31 06:31:31;;;;;;;38.67;8.77;;;0.70;95.80;;;;;;4997554;28;20037;-70
2022/01/31 06:33:58;;;;;;;37.88;8.88;;;0.70;95.90;;;;;;5000375;28;20030;-70
2022/01/31 06:36:23;;;;;;;38.13;8.95;;;0.70;95.90;;;;;;4990967;28;20030;-70
2022/01/31 06:38:49;;;;;;;34.03;8.45;;;0.70;96.00;;;;;;4993624;28;20034;-69
2022/01/31 06:41:17;;;;;;;34.95;8.45;;;0.70;95.90;;;;;;4993225;28;20018;-70
2022/01/31 06:43:43;;;;;;;24.98;8.07;;;0.70;95.90;;;;;;4980263;28;20120;-70
2022/01/31 06:46:09;;;;;;;35.03;7.82;;;0.60;96.00;;;;;;4992814;28;20573;-70
2022/01/31 06:48:34;;;;;;;25.13;7.95;;;0.60;96.00;;;;;;4992740;28;20045;-70
2022/01/31 06:51:00;;;;;;;21.27;7.53;;;0.70;96.10;;;;;;4990553;28;20035;-70
2022/01/31 06:53:28;;;;;;;25.73;8.35;;;0.70;96.10;;;;;;4989505;28;20469;-70
2022/01/31 06:55:55;;;;;;;30.25;7.95;;;0.60;96.10;;;;;;4991938;28;20409;-70
2022/01/31 06:58:20;;;;;;;30.00;7.65;;;0.70;96.10;;;;;;4989559;28;20113;-70
2022/01/31 07:00:46;;;;;;;29.75;7.97;;;0.60;96.20;;;;;;4992695;28;20434;-70
2022/01/31 07:03:13;;;;;;;23.02;8.20;;;0.70;96.20;;;;;;4992376;28;20022;-70
2022/01/31 07:05:42;;;;;;;28.80;8.10;;;0.60;96.20;;;;;;4989971;28;20030;-69
2022/01/31 07:08:08;;;;;;;23.02;7.78;;;0.70;96.20;;;;;;4989969;28;20050;-69
2022/01/31 07:10:34;;;;;;;25.30;7.68;;;0.60;96.30;;;;;;4992970;28;20112;-69
2022/01/31 07:13:02;;;;;;;28.15;7.97;;;0.70;96.30;;;;;;4992669;28;20026;-70
2022/01/31 07:15:27;;;;;;;27.98;7.85;;;0.70;96.30;;;;;;4992343;28;20100;-70
2022/01/31 07:17:54;;;;;;;21.60;7.68;;;0.70;96.40;;;;;;4992255;28;20033;-70
2022/01/31 07:20:23;;;;;;;24.30;7.78;;;0.70;96.40;;;;;;4986990;28;20117;-70
2022/01/31 07:22:56;;;;;;;19.45;7.95;;;0.80;96.40;;;;;;4975365;28;20018;-70
2022/01/31 07:25:34;;;;;;;21.58;7.15;;;0.80;96.40;;;;;;4989057;28;20323;-70
2022/01/31 07:28:04;;;;;;;20.95;8.45;;;0.80;96.40;;;;;;4991441;28;20030;-69
2022/01/31 07:30:30;;;;;;;20.65;7.90;;;0.80;96.40;;;;;;4984063;28;20080;-70
2022/01/31 07:32:55;;;;;;;16.08;7.40;;;0.90;96.40;;;;;;5005241;28;20018;-69
2022/01/31 07:35:21;;;;;;;12.93;6.43;;;0.80;96.40;;;;;;4989816;28;20397;-70
2022/01/31 07:37:47;;;;;;;18.75;7.10;;;0.80;96.40;;;;;;5006363;28;20057;-70
2022/01/31 07:40:13;;;;;;;18.95;7.43;;;0.90;96.40;;;;;;4983107;28;20038;-70
2022/01/31 07:42:38;;;;;;;13.95;6.47;;;0.90;96.40;;;;;;4986823;28;20058;-70
2022/01/31 07:45:04;;;;;;;19.63;6.72;;;0.90;96.40;;;;;;4981983;28;20119;-69
2022/01/31 07:47:30;;;;;;;14.50;6.45;;;0.90;96.40;;;;;;4991402;28;20112;-70
2022/01/31 07:49:55;;;;;;;17.17;6.93;;;0.90;96.40;;;;;;4990998;28;20417;-70
2022/01/31 07:52:21;;;;;;;15.65;7.45;;;0.90;96.40;;;;;;4989770;28;20040;-69
2022/01/31 07:54:46;;;;;;;14.40;7.35;;;0.90;96.40;;;;;;4990807;28;20086;-70
2022/01/31 07:57:12;;;;;;;15.02;7.00;;;0.90;96.40;;;;;;4991506;28;20030;-70
2022/01/31 07:59:37;;;;;;;13.93;7.18;;;0.90;96.40;;;;;;4991655;28;20121;-69
2022/01/31 08:02:03;;;;;;;16.35;7.28;;;1.00;96.40;;;;;;4987442;28;20034;-69
2022/01/31 08:04:29;;;;;;;15.23;7.28;;;1.00;96.40;;;;;;4991289;28;20077;-69
2022/01/31 08:06:54;;;;;;;14.80;7.35;;;1.00;96.40;;;;;;4987902;28;20037;-70
2022/01/31 08:09:20;;;;;;;16.67;8.32;;;1.00;96.40;;;;;;4980122;28;20018;-69
2022/01/31 08:11:45;;;;;;;19.65;7.85;;;1.10;96.40;;;;;;4989934;28;20038;-69
2022/01/31 08:14:13;;;;;;;14.27;7.18;;;1.10;96.40;;;;;;4991455;28;20031;-70
2022/01/31 08:16:39;;;;;;;11.95;7.57;;;1.20;96.40;;;;;;4989721;28;20042;-69
2022/01/31 08:19:07;;;;;;;15.75;7.93;;;1.20;96.40;;;;;;4990874;28;20033;-69
2022/01/31 08:21:33;;;;;;;13.48;7.90;;;1.30;96.40;;;;;;4989189;28;20034;-70
2022/01/31 08:23:59;;;;;;;12.55;7.70;;;1.20;96.30;;;;;;4991417;28;20373;-70
2022/01/31 08:26:25;;;;;;;16.85;7.50;;;1.20;96.30;;;;;;4990756;28;20030;-70
2022/01/31 08:31:21;;;;;;;15.35;7.68;;;1.30;96.30;;;;;;5003819;28;20611;-70
2022/01/31 08:34:04;;;;;;;14.60;7.13;;;1.20;96.20;;;;;;4990899;28;20041;-70
2022/01/31 08:36:34;;;;;;;11.38;6.65;;;1.20;96.20;;;;;;4988780;28;20038;-69
2022/01/31 08:39:08;;;;;;;12.35;7.25;;;1.20;96.20;;;;;;4979374;28;20458;-69
2022/01/31 08:41:35;;;;;;;9.57;6.55;;;1.30;96.30;;;;;;4989668;28;20064;-70
2022/01/31 08:44:01;;;;;;;14.02;6.75;;;1.40;96.30;;;;;;4991124;28;20033;-69
2022/01/31 08:46:27;;;;;;;10.68;6.68;;;1.40;96.30;;;;;;4989606;28;20034;-70
2022/01/31 08:48:55;;;;;;;9.95;6.35;;;1.30;96.10;;;;;;4990538;28;20459;-70
2022/01/31 08:51:20;;;;;;;12.05;6.03;;;1.40;96.30;;;;;;4977041;28;20528;-70
2022/01/31 08:53:48;;;;;;;12.07;6.68;;;1.40;96.30;;;;;;4988678;28;20440;-70
2022/01/31 08:56:13;;;;;;;12.73;6.25;;;1.40;96.20;;;;;;4981448;28;20027;-69
2022/01/31 08:58:46;;;;;;;9.70;6.20;;;1.50;96.20;;;;;;4979963;28;20026;-69
2022/01/31 09:01:16;;;;;;;10.05;5.63;;;1.50;96.20;;;;;;4990465;28;20023;-70
2022/01/31 09:03:55;;;;;;;12.77;5.70;;;1.60;96.20;;;;;;4988761;28;20038;-69
2022/01/31 09:06:26;;;;;;;11.25;5.88;;;1.60;96.10;;;;;;4988037;28;20035;-70
2022/01/31 09:08:52;;;;;;;10.68;5.90;;;1.60;96.00;;;;;;4991412;28;20022;-70
2022/01/31 09:11:18;;;;;;;11.00;6.03;;;1.60;96.00;;;;;;4990634;28;20077;-70
2022/01/31 09:13:44;;;;;;;9.48;5.70;;;1.80;96.20;;;;;;4990901;28;20034;-70
2022/01/31 09:16:10;;;;;;;10.90;6.03;;;1.80;96.00;;;;;;4976773;28;20073;-70
2022/01/31 09:18:36;;;;;;;9.40;5.63;;;1.90;95.90;;;;;;4990182;28;20035;-70
2022/01/31 09:21:03;;;;;;;10.00;5.82;;;2.00;95.90;;;;;;4988048;28;20496;-70
2022/01/31 09:23:29;;;;;;;9.27;5.95;;;2.20;95.90;;;;;;4990293;28;20030;-70
2022/01/31 09:25:56;;;;;;;9.20;5.60;;;2.40;95.90;;;;;;4990818;28;20036;-70
2022/01/31 09:28:22;;;;;;;8.82;5.53;;;2.50;95.80;;;;;;4989557;28;20429;-70
2022/01/31 09:30:48;;;;;;;8.25;5.57;;;2.50;95.50;;;;;;4992484;28;20457;-70
2022/01/31 09:33:16;;;;;;;9.25;5.53;;;2.60;95.50;;;;;;4990713;28;20026;-70
2022/01/31 09:35:42;;;;;;;8.07;5.00;;;2.50;95.40;;;;;;4987038;28;20099;-70
2022/01/31 09:38:12;;;;;;;7.57;5.05;;;2.50;95.30;;;;;;4986314;28;20019;-70
2022/01/31 09:40:37;;;;;;;6.78;4.07;;;2.60;95.20;;;;;;4980107;28;20061;-70
2022/01/31 09:51:07;;;;;;;7.95;4.60;;;2.40;94.50;;;;;;4988552;28;20028;-70
2022/01/31 09:53:38;;;;;;;6.85;4.80;;;2.40;94.60;;;;;;4994370;28;20405;-70
2022/01/31 09:56:07;;;;;;;10.07;5.28;;;2.60;94.80;;;;;;4993828;28;20474;-70
2022/01/31 09:58:32;;;;;;;7.72;4.68;;;2.60;94.60;;;;;;4993169;28;20022;-70
2022/01/31 10:01:10;;;;;;;6.57;4.05;;;2.70;94.50;;;;;;4993532;28;20106;-70
2022/01/31 10:03:50;;;;;;;7.82;5.03;;;2.60;94.30;;;;;;4993797;28;20027;-70
2022/01/31 10:06:23;;;;;;;7.10;4.70;;;2.70;94.30;;;;;;4991069;28;20061;-70
2022/01/31 10:09:06;;;;;;;7.32;4.80;;;2.70;94.20;;;;;;4993957;28;20014;-70
2022/01/31 10:11:46;;;;;;;7.05;4.97;;;2.60;94.10;;;;;;5007925;28;20030;-70
2022/01/31 10:17:28;;;;;;;6.40;4.82;;;2.60;93.90;;;;;;4985296;28;20561;-70
2022/01/31 10:19:56;;;;;;;7.97;5.10;;;2.60;93.80;;;;;;4991084;28;20613;-70
2022/01/31 10:22:23;;;;;;;7.95;5.28;;;2.50;93.80;;;;;;4985968;28;20034;-70
2022/01/31 10:24:51;;;;;;;8.23;5.30;;;2.50;93.90;;;;;;4987549;28;20030;-70
2022/01/31 10:27:21;;;;;;;14.35;5.30;;;2.50;93.90;;;;;;4991986;28;20146;-70
2022/01/31 10:29:49;;;;;;;9.18;5.63;;;2.60;94.00;;;;;;5004252;28;20026;-70
2022/01/31 10:32:25;;;;;;;9.18;5.25;;;2.60;94.00;;;;;;4994630;28;20030;-70
2022/01/31 10:34:54;;;;;;;10.65;5.88;;;2.60;94.00;;;;;;4985975;28;20026;-70
2022/01/31 10:37:22;;;;;;;7.72;5.30;;;2.70;94.00;;;;;;4988417;28;20077;-70
2022/01/31 10:45:56;;;;;;;9.65;5.90;;;2.80;93.70;;;;;;4991617;28;20085;-70
2022/01/31 10:51:52;;;;;;;8.82;5.20;;;2.90;93.50;;;;;;4989992;28;20029;-70
2022/01/31 10:56:53;;;;;;;7.40;5.40;;;2.90;93.30;;;;;;4991162;28;20030;-70
2022/01/31 10:59:23;;;;;;;8.40;6.10;;;2.90;93.40;;;;;;4992954;28;20073;-70
2022/01/31 11:01:52;;;;;;;8.07;5.83;;;3.00;93.50;;;;;;4991968;28;20042;-70
2022/01/31 11:04:18;;;;;;;8.95;5.88;;;3.00;93.50;;;;;;4991493;28;20030;-70
2022/01/31 11:06:45;;;;;;;8.57;5.07;;;3.00;93.40;;;;;;4989751;28;20038;-70
2022/01/31 11:09:16;;;;;;;9.68;5.25;;;2.90;93.20;;;;;;4992753;28;20058;-70
2022/01/31 11:11:46;;;;;;;;;;;3.00;93.40;;;;;;4991827;28;20168;-70
2022/01/31 11:14:13;;;;;;;7.90;5.20;;;3.00;93.50;;;;;;4992853;28;19996;-70
2022/01/31 11:16:43;;;;;;;7.20;5.00;;;3.00;93.30;;;;;;4979141;28;20386;-70
2022/01/31 11:19:10;;;;;;;9.13;5.82;;;3.00;93.30;;;;;;4992213;28;20153;-70
2022/01/31 11:21:43;;;;;;;9.13;5.32;;;3.10;93.50;;;;;;4990252;28;20062;-70
2022/01/31 11:24:19;;;;;;;8.23;5.22;;;3.10;93.40;;;;;;4992820;28;20038;-70
2022/01/31 11:26:51;;;;;;;9.70;5.30;;;3.10;93.40;;;;;;4992377;28;20470;-70
2022/01/31 11:29:17;;;;;;;8.25;5.38;;;3.10;93.50;;;;;;5005555;28;20033;-70
2022/01/31 11:31:45;;;;;;;9.90;5.65;;;3.20;93.60;;;;;;4991616;28;20043;-70
2022/01/31 11:34:11;;;;;;;8.13;5.10;;;3.10;93.50;;;;;;4989876;28;20038;-70
2022/01/31 11:36:38;;;;;;;6.70;4.80;;;3.20;93.50;;;;;;4972580;28;20030;-70
2022/01/31 11:39:07;;;;;;;7.47;5.40;;;3.20;93.60;;;;;;4978797;28;20061;-70
2022/01/31 11:41:34;;;;;;;7.47;5.18;;;3.20;93.50;;;;;;4989160;28;20026;-70
2022/01/31 11:44:10;;;;;;;6.03;4.57;;;3.30;93.70;;;;;;4991866;28;20504;-70
2022/01/31 11:46:39;;;;;;;8.00;4.68;;;3.30;93.60;;;;;;4991887;28;20052;-70
2022/01/31 11:49:14;;;;;;;9.05;5.38;;;3.20;93.50;;;;;;4989615;28;20027;-70
2022/01/31 11:52:03;;;;;;;7.55;4.50;;;3.30;93.80;;;;;;4981271;28;20022;-70
2022/01/31 11:54:30;;;;;;;6.68;4.53;;;3.20;93.70;;;;;;4991461;28;20112;-70
2022/01/31 11:56:55;;;;;;;8.13;5.25;;;3.20;93.70;;;;;;4986858;28;20462;-70
2022/01/31 11:59:23;;;;;;;10.13;5.55;;;3.20;93.80;;;;;;4989450;28;20034;-70
2022/01/31 12:01:52;;;;;;;7.90;5.53;;;3.10;93.70;;;;;;4989275;28;20089;-70
2022/01/31 12:04:22;;;;;;;9.40;5.70;;;3.10;93.70;;;;;;4991096;28;20573;-70
2022/01/31 12:06:48;;;;;;;8.17;4.83;;;3.10;93.70;;;;;;4989689;28;20030;-70
2022/01/31 12:09:17;;;;;;;8.15;4.82;;;3.10;93.70;;;;;;4988596;28;20033;-70
2022/01/31 12:12:05;;;;;;;7.25;4.63;;;3.20;93.90;;;;;;4982300;28;20023;-70
2022/01/31 12:14:49;;;;;;;6.90;4.60;;;3.20;93.70;;;;;;4985468;28;20034;-70
2022/01/31 12:18:04;;;;;;;6.57;4.75;;;3.20;93.70;;;;;;4999703;28;20648;-70
2022/01/31 12:23:39;;;;;;;7.30;4.78;;;3.20;93.50;;;;;;4982433;28;20041;-70
2022/01/31 12:26:39;;;;;;;8.65;5.40;;;3.30;93.70;;;;;;5005403;28;20026;-70
2022/01/31 12:29:11;;;;;;;11.02;6.28;;;3.30;93.60;;;;;;4989621;28;20026;-70
2022/01/31 12:31:46;;;;;;;11.30;6.45;;;3.30;93.40;;;;;;4976706;28;20034;-70
2022/01/31 12:34:32;;;;;;;9.55;5.53;;;3.30;93.40;;;;;;4988039;28;20034;-70
2022/01/31 12:37:04;;;;;;;8.18;5.35;;;3.20;93.20;;;;;;4983099;28;20030;-70
2022/01/31 12:39:41;;;;;;;10.90;5.63;;;3.30;93.10;;;;;;4991151;28;20027;-70
2022/01/31 12:45:12;;;;;;;9.43;5.68;;;3.40;93.10;;;;;;4990525;28;20070;-70
2022/01/31 12:47:38;;;;;;;10.73;5.72;;;3.50;93.10;;;;;;4989871;28;20105;-70
2022/01/31 12:50:22;;;;;;;11.82;5.30;;;3.50;93.10;;;;;;4982001;28;20114;-70
2022/01/31 12:52:47;;;;;;;8.30;4.93;;;3.60;93.10;;;;;;4987200;28;20030;-70
2022/01/31 12:55:14;;;;;;;9.32;4.93;;;3.50;92.80;;;;;;4982823;28;20038;-70
2022/01/31 12:57:50;;;;;;;11.07;5.22;;;3.50;92.90;;;;;;4987331;28;20026;-70
2022/01/31 13:00:38;;;;;;;11.70;5.18;;;3.50;93.00;;;;;;4990452;28;20110;-70
2022/01/31 13:03:04;;;;;;;12.32;6.05;;;3.50;92.90;;;;;;4990695;28;20391;-70
2022/01/31 13:05:34;;;;;;;9.75;5.72;;;3.40;92.80;;;;;;4988502;28;20049;-70
2022/01/31 13:08:00;;;;;;;12.47;5.47;;;3.40;92.70;;;;;;4990663;28;20446;-70
2022/01/31 13:10:37;;;;;;;9.63;5.53;;;3.40;92.60;;;;;;4990792;28;20037;-70
2022/01/31 13:13:03;;;;;;;12.43;5.47;;;3.50;92.60;;;;;;4991091;28;20033;-70
2022/01/31 13:15:29;;;;;;;10.25;5.07;;;3.50;92.50;;;;;;4989431;28;20051;-70
2022/01/31 13:18:08;;;;;;;8.75;5.43;;;3.50;92.70;;;;;;4990407;28;20026;-70
2022/01/31 13:20:36;;;;;;;11.18;5.60;;;3.50;92.50;;;;;;4987897;28;20599;-70
2022/01/31 13:23:03;;;;;;;9.90;5.45;;;3.50;92.70;;;;;;4989007;28;20112;-70
2022/01/31 13:25:30;;;;;;;10.82;5.57;;;3.40;92.60;;;;;;4990169;28;20355;-70